Time;durP1;ratioP1;P1;durP2;ratioP2;P2;SDS_P1;SDS_P2;PMS_P1;PMS_P2;Temp;Humidity;BMP_temperature;BMP_pressure;BME280_temperature;BME280_humidity;BME280_pressure;Samples;Min_cycle;Max_cycle;Signal;HPM_P1;HPM_P2
2024/02/02 00:02:05;;;;;;;6.32;2.85;;;;;;;8.85;100.00;102375.56;5112381;28;20106;-77
2024/02/02 00:04:31;;;;;;;4.55;2.92;;;;;;;8.85;100.00;102370.19;5095489;28;20535;-78
2024/02/02 00:06:57;;;;;;;4.47;2.45;;;;;;;8.88;100.00;102376.16;5079347;28;20074;-78
2024/02/02 00:09:23;;;;;;;2.10;1.67;;;;;;;8.92;100.00;102379.44;5078677;28;20039;-79
2024/02/02 00:11:48;;;;;;;4.43;2.60;;;;;;;8.96;100.00;102367.47;5079219;28;20115;-78
2024/02/02 00:14:14;;;;;;;4.60;2.67;;;;;;;9.00;100.00;102369.78;5079182;28;20031;-78
2024/02/02 00:16:40;;;;;;;6.55;2.72;;;;;;;8.99;100.00;102361.84;5082714;28;20039;-79
2024/02/02 00:19:06;;;;;;;5.63;2.33;;;;;;;9.00;100.00;102359.06;5082805;28;20039;-79
2024/02/02 00:21:32;;;;;;;3.85;2.00;;;;;;;8.99;100.00;102361.84;5082802;28;20027;-78
2024/02/02 00:23:57;;;;;;;4.80;2.58;;;;;;;9.01;100.00;102365.28;5083059;28;20032;-79
2024/02/02 00:26:23;;;;;;;5.03;2.05;;;;;;;9.05;100.00;102361.38;5082929;28;20062;-79
2024/02/02 00:28:49;;;;;;;6.20;2.83;;;;;;;9.10;100.00;102364.50;5082580;28;20023;-79
2024/02/02 00:31:14;;;;;;;4.93;2.22;;;;;;;9.14;100.00;102362.44;5082977;28;20051;-79
2024/02/02 00:33:40;;;;;;;5.13;2.45;;;;;;;9.17;100.00;102351.44;5082943;28;20119;-79
2024/02/02 00:36:06;;;;;;;5.35;2.83;;;;;;;9.17;100.00;102346.91;5082858;28;20070;-79
2024/02/02 00:38:31;;;;;;;5.57;1.73;;;;;;;9.17;100.00;102354.97;5099049;28;20175;-79
2024/02/02 00:40:57;;;;;;;3.88;2.42;;;;;;;9.16;100.00;102347.06;5082558;28;20035;-79
2024/02/02 00:43:23;;;;;;;4.20;2.47;;;;;;;9.19;100.00;102347.66;5082727;28;20031;-79
2024/02/02 00:45:48;;;;;;;3.10;1.90;;;;;;;9.18;100.00;102342.38;5116389;28;20027;-78
2024/02/02 00:48:14;;;;;;;5.28;1.70;;;;;;;9.17;100.00;102336.19;5082327;28;20036;-79
2024/02/02 00:50:40;;;;;;;3.47;1.60;;;;;;;9.18;100.00;102339.72;5082822;28;20036;-79
2024/02/02 00:53:05;;;;;;;2.05;1.27;;;;;;;9.16;100.00;102334.50;5116444;28;20126;-79
2024/02/02 00:55:31;;;;;;;4.43;2.05;;;;;;;9.13;100.00;102326.69;5082566;28;20039;-79
2024/02/02 00:57:56;;;;;;;2.50;1.63;;;;;;;9.17;100.00;102336.19;5082408;28;20069;-79
2024/02/02 01:00:22;;;;;;;2.72;1.50;;;;;;;9.16;100.00;102330.97;5082419;28;20464;-79
2024/02/02 01:02:48;;;;;;;2.97;1.45;;;;;;;9.18;100.00;102326.28;5082346;28;20024;-79
2024/02/02 01:05:14;;;;;;;3.50;1.63;;;;;;;9.15;100.00;102311.28;5099097;28;20035;-79
2024/02/02 01:07:39;;;;;;;4.20;1.92;;;;;;;9.18;100.00;102315.56;5098884;28;20122;-79
2024/02/02 01:10:06;;;;;;;5.10;2.08;;;;;;;9.19;100.00;102320.81;5082213;28;20454;-79
2024/02/02 01:12:33;;;;;;;2.63;1.70;;;;;;;9.18;100.00;102311.06;5082212;28;20039;-79
2024/02/02 01:14:59;;;;;;;5.32;1.70;;;;;;;9.17;100.00;102313.88;5099178;28;20036;-79
2024/02/02 01:17:25;;;;;;;3.30;1.60;;;;;;;9.18;100.00;102315.56;5098545;28;20039;-79
2024/02/02 01:19:50;;;;;;;2.85;1.50;;;;;;;9.18;100.00;102316.44;5114449;28;20369;-79
2024/02/02 01:22:16;;;;;;;2.60;1.30;;;;;;;9.19;100.00;102315.44;5080884;28;20032;-79
2024/02/02 01:24:42;;;;;;;2.85;1.33;;;;;;;9.19;100.00;102310.06;5080844;28;20092;-79
2024/02/02 01:27:08;;;;;;;3.72;1.55;;;;;;;9.19;100.00;102309.22;5097105;28;20031;-79
2024/02/02 01:29:33;;;;;;;2.60;1.40;;;;;;;9.19;100.00;102301.19;5097536;28;20035;-79
2024/02/02 01:31:59;;;;;;;1.98;1.50;;;;;;;9.17;100.00;102290.56;5097574;28;20035;-79
2024/02/02 01:34:25;;;;;;;3.47;1.33;;;;;;;9.21;100.00;102292.00;5080588;28;20040;-78
2024/02/02 01:36:52;;;;;;;4.10;1.70;;;;;;;9.23;100.00;102283.81;5080483;28;20023;-78
2024/02/02 01:39:18;;;;;;;2.33;1.10;;;;;;;9.23;100.00;102287.38;5113909;28;20531;-78
2024/02/02 01:41:47;;;;;;;2.25;1.00;;;;;;;9.27;100.00;102292.47;5080931;28;20085;-78
2024/02/02 01:44:13;;;;;;;2.55;1.20;;;;;;;9.21;100.00;102281.28;5080899;28;20039;-78
2024/02/02 01:46:38;;;;;;;1.60;1.30;;;;;;;9.25;100.00;102289.91;5080354;28;20490;-78
2024/02/02 01:49:04;;;;;;;1.63;1.00;;;;;;;9.29;100.00;102283.31;5096983;28;20039;-78
2024/02/02 01:51:30;;;;;;;1.27;0.90;;;;;;;9.31;100.00;102284.00;5080333;28;20364;-78
2024/02/02 01:53:55;;;;;;;1.65;0.90;;;;;;;9.29;100.00;102288.69;5080271;28;20039;-78
2024/02/02 01:56:21;;;;;;;2.95;1.10;;;;;;;9.32;100.00;102282.22;5080433;28;20031;-78
2024/02/02 01:58:47;;;;;;;1.40;1.00;;;;;;;9.31;100.00;102275.97;5080223;28;20552;-79
2024/02/02 02:01:13;;;;;;;1.75;1.10;;;;;;;9.35;100.00;102268.53;5113584;28;20050;-78
2024/02/02 02:03:39;;;;;;;2.45;0.80;;;;;;;9.36;100.00;102272.91;5079987;28;20471;-79
2024/02/02 02:06:05;;;;;;;4.03;1.13;;;;;;;9.37;100.00;102274.63;5079902;28;20057;-79
2024/02/02 02:08:30;;;;;;;2.47;1.13;;;;;;;9.38;100.00;102277.16;5079859;28;20383;-78
2024/02/02 02:10:57;;;;;;;2.95;1.25;;;;;;;9.38;100.00;102269.09;5096936;28;20127;-79
2024/02/02 02:13:26;;;;;;;2.60;1.38;;;;;;;9.37;100.00;102271.94;5079853;28;20036;-79
2024/02/02 02:15:53;;;;;;;1.75;1.05;;;;;;;9.39;100.00;102268.13;5097112;28;20031;-79
2024/02/02 02:18:21;;;;;;;2.45;1.10;;;;;;;9.37;100.00;102264.72;5051892;28;1285816;-78
2024/02/02 02:20:54;;;;;;;2.20;1.20;;;;;;;9.36;100.00;102257.63;5081403;28;20032;-78
2024/02/02 02:23:19;;;;;;;1.90;1.00;;;;;;;9.35;100.00;102258.63;5114435;28;20035;-78
2024/02/02 02:25:45;;;;;;;2.15;1.20;;;;;;;9.34;100.00;102256.94;5080569;28;20068;-78
2024/02/02 02:28:11;;;;;;;2.33;1.23;;;;;;;9.36;100.00;102252.25;5098249;28;20047;-78
2024/02/02 02:30:37;;;;;;;2.78;1.05;;;;;;;9.38;100.00;102257.50;5080328;28;20390;-79
2024/02/02 02:33:04;;;;;;;1.45;1.00;;;;;;;9.37;100.00;102253.13;5080475;28;20046;-77
2024/02/02 02:35:29;;;;;;;1.45;1.05;;;;;;;9.34;100.00;102253.38;5096994;28;20460;-78
2024/02/02 02:37:55;;;;;;;4.47;1.25;;;;;;;9.35;100.00;102255.94;5079868;28;20126;-78
2024/02/02 02:40:21;;;;;;;5.53;1.52;;;;;;;9.38;100.00;102250.31;5080544;28;20464;-78
2024/02/02 02:42:49;;;;;;;5.65;1.10;;;;;;;9.41;100.00;102257.25;5080290;28;20357;-78
2024/02/02 02:45:15;;;;;;;3.53;1.00;;;;;;;9.43;100.00;102247.22;5096725;28;20023;-77
2024/02/02 02:47:41;;;;;;;5.07;1.08;;;;;;;9.44;100.00;102244.41;5097164;28;20070;-78
2024/02/02 02:50:09;;;;;;;1.50;0.95;;;;;;;9.45;100.00;102253.34;5080281;28;20069;-78
2024/02/02 02:52:35;;;;;;;2.15;0.90;;;;;;;9.45;100.00;102239.91;5080233;28;20035;-78
2024/02/02 02:55:01;;;;;;;2.80;0.95;;;;;;;9.46;100.00;102241.59;5097011;28;20119;-78
2024/02/02 02:57:27;;;;;;;1.50;1.00;;;;;;;9.44;100.00;102239.03;5113789;28;20024;-78
2024/02/02 02:59:53;;;;;;;4.63;1.00;;;;;;;9.45;100.00;102239.91;5080510;28;20188;-79
2024/02/02 03:02:18;;;;;;;3.97;1.20;;;;;;;9.41;100.00;102230.41;5079959;28;20035;-78
2024/02/02 03:04:44;;;;;;;1.67;1.08;;;;;;;9.41;100.00;102231.25;5097031;28;20027;-78
2024/02/02 03:07:10;;;;;;;3.15;1.33;;;;;;;9.38;100.00;102226.16;5079906;28;20407;-78
2024/02/02 03:09:36;;;;;;;2.25;0.95;;;;;;;9.39;100.00;102227.00;5079896;28;20039;-78
2024/02/02 03:12:05;;;;;;;1.63;0.90;;;;;;;9.41;100.00;102233.09;5096841;28;20490;-78
2024/02/02 03:14:31;;;;;;;1.73;0.70;;;;;;;9.38;100.00;102231.50;5079853;28;20038;-78
2024/02/02 03:16:57;;;;;;;1.95;1.10;;;;;;;9.39;100.00;102225.19;5079765;28;20036;-78
2024/02/02 03:19:22;;;;;;;3.35;1.08;;;;;;;9.42;100.00;102229.41;5079615;28;20031;-78
2024/02/02 03:21:48;;;;;;;2.00;0.98;;;;;;;9.45;100.00;102219.28;5079677;28;20535;-80
2024/02/02 03:24:14;;;;;;;2.83;1.10;;;;;;;9.45;100.00;102224.66;5079670;28;20028;-78
2024/02/02 03:26:41;;;;;;;0.73;0.70;;;;;;;9.46;100.00;102220.97;5113019;28;20027;-79
2024/02/02 03:29:07;;;;;;;2.17;0.88;;;;;;;9.50;100.00;102220.69;5079119;28;20069;-78
2024/02/02 03:31:33;;;;;;;2.28;0.98;;;;;;;9.51;100.00;102211.66;5078686;28;20031;-78
2024/02/02 03:33:59;;;;;;;3.38;1.33;;;;;;;9.52;100.00;102211.53;5113033;28;20115;-78
2024/02/02 03:36:25;;;;;;;2.65;1.10;;;;;;;9.51;100.00;102204.47;5113124;28;20126;-78
2024/02/02 03:38:51;;;;;;;1.88;0.70;;;;;;;9.51;100.00;102204.47;5095796;28;20038;-79
2024/02/02 03:41:17;;;;;;;4.10;0.98;;;;;;;9.51;100.00;102207.16;5079520;28;20069;-78
2024/02/02 03:43:43;;;;;;;2.88;1.02;;;;;;;9.47;100.00;102205.69;5079686;28;20139;-78
2024/02/02 03:46:09;;;;;;;1.40;1.00;;;;;;;9.49;100.00;102208.25;5079493;28;20122;-79
2024/02/02 03:48:34;;;;;;;0.80;0.80;;;;;;;9.49;100.00;102209.09;5095648;28;20428;-78
2024/02/02 03:51:00;;;;;;;5.88;1.20;;;;;;;9.47;100.00;102203.00;5079374;28;20067;-78
2024/02/02 03:53:26;;;;;;;2.58;0.98;;;;;;;9.47;100.00;102194.97;5079411;28;20036;-79
2024/02/02 03:55:51;;;;;;;3.47;0.90;;;;;;;9.47;100.00;102194.97;5095676;28;20057;-78
2024/02/02 03:58:17;;;;;;;1.25;0.90;;;;;;;9.49;100.00;102190.31;5079653;28;20032;-78
2024/02/02 04:00:43;;;;;;;2.88;1.15;;;;;;;9.50;100.00;102200.09;5079186;28;20488;-78
2024/02/02 04:03:09;;;;;;;2.67;0.80;;;;;;;9.51;100.00;102198.25;5095517;28;20027;-78
2024/02/02 04:05:35;;;;;;;3.83;0.85;;;;;;;9.52;100.00;102192.72;5112452;28;20055;-78
2024/02/02 04:08:01;;;;;;;1.63;0.65;;;;;;;9.56;100.00;102188.81;5078164;28;20545;-78
2024/02/02 04:10:27;;;;;;;1.00;0.60;;;;;;;9.57;100.00;102189.66;5079091;28;20024;-79
2024/02/02 04:12:52;;;;;;;0.50;0.50;;;;;;;9.55;100.00;102184.44;5078918;28;20024;-79
2024/02/02 04:15:18;;;;;;;0.68;0.68;;;;;;;9.55;100.00;102186.22;5079049;28;20044;-78
2024/02/02 04:17:44;;;;;;;1.65;0.60;;;;;;;9.54;100.00;102177.34;5078807;28;20075;-78
2024/02/02 04:20:10;;;;;;;0.60;0.60;;;;;;;9.56;100.00;102175.38;5079086;28;20027;-79
2024/02/02 04:22:35;;;;;;;7.10;0.77;;;;;;;9.55;100.00;102172.81;5079016;28;20046;-78
2024/02/02 04:25:01;;;;;;;2.03;0.60;;;;;;;9.52;100.00;102176.63;5078900;28;20038;-78
2024/02/02 04:27:27;;;;;;;3.03;0.85;;;;;;;9.52;100.00;102171.25;5078917;28;20031;-79
2024/02/02 04:29:53;;;;;;;8.55;1.02;;;;;;;9.51;100.00;102180.28;5079062;28;20038;-78
2024/02/02 04:32:19;;;;;;;3.78;0.80;;;;;;;9.50;100.00;102170.56;5095869;28;20028;-78
2024/02/02 04:34:45;;;;;;;2.75;1.05;;;;;;;9.50;100.00;102175.91;5078917;28;20028;-78
2024/02/02 04:37:10;;;;;;;0.73;0.70;;;;;;;9.50;100.00;102164.31;5095608;28;20035;-78
2024/02/02 04:39:36;;;;;;;2.47;0.60;;;;;;;9.49;100.00;102165.31;5078606;28;20035;-78
2024/02/02 04:42:02;;;;;;;4.13;0.70;;;;;;;9.50;100.00;102173.25;5078833;28;20383;-78
2024/02/02 04:44:28;;;;;;;0.50;0.50;;;;;;;9.49;100.00;102182.25;5078968;28;20039;-78
2024/02/02 04:46:53;;;;;;;0.65;0.50;;;;;;;9.48;100.00;102179.72;5078866;28;20379;-78
2024/02/02 04:49:19;;;;;;;0.50;0.50;;;;;;;9.47;100.00;102176.16;5078527;28;20027;-78
2024/02/02 04:51:45;;;;;;;0.93;0.60;;;;;;;9.46;100.00;102177.16;5078759;28;20097;-78
2024/02/02 04:54:10;;;;;;;1.48;0.50;;;;;;;9.44;100.00;102176.44;5095435;28;20126;-78
2024/02/02 04:56:36;;;;;;;4.10;1.00;;;;;;;9.43;100.00;102172.91;5112376;28;20028;-78
2024/02/02 04:59:03;;;;;;;2.72;0.98;;;;;;;9.40;100.00;102169.66;5095549;28;20031;-78
2024/02/02 05:01:28;;;;;;;1.77;0.60;;;;;;;9.42;100.00;102181.97;5097060;28;20070;-78
2024/02/02 05:03:55;;;;;;;1.20;0.95;;;;;;;9.42;100.00;102175.72;5099002;28;20028;-78
2024/02/02 05:06:22;;;;;;;1.48;0.60;;;;;;;9.41;100.00;102166.81;5099097;28;20084;-78
2024/02/02 05:08:48;;;;;;;1.08;0.68;;;;;;;9.42;100.00;102178.41;5099075;28;20463;-78
2024/02/02 05:11:13;;;;;;;2.10;0.65;;;;;;;9.41;100.00;102174.03;5065579;28;20031;-78
2024/02/02 05:13:39;;;;;;;0.63;0.60;;;;;;;9.41;100.00;102177.56;5082069;28;20042;-78
2024/02/02 05:16:05;;;;;;;2.30;0.60;;;;;;;9.41;100.00;102169.50;5082206;28;20471;-79
2024/02/02 05:18:31;;;;;;;1.08;0.70;;;;;;;9.40;100.00;102170.50;5082064;28;20502;-78
2024/02/02 05:20:57;;;;;;;0.60;0.60;;;;;;;9.42;100.00;102175.72;5082085;28;20041;-78
2024/02/02 05:23:24;;;;;;;0.60;0.60;;;;;;;9.40;100.00;102172.34;5098716;28;20080;-78
2024/02/02 05:25:50;;;;;;;2.85;0.88;;;;;;;9.41;100.00;102169.50;5115576;28;20111;-78
2024/02/02 05:28:16;;;;;;;5.43;0.80;;;;;;;9.38;100.00;102167.09;5081773;28;20160;-78
2024/02/02 05:30:41;;;;;;;1.23;0.50;;;;;;;9.40;100.00;102169.66;5081801;28;20027;-78
2024/02/02 05:33:07;;;;;;;0.55;0.50;;;;;;;9.39;100.00;102174.19;5098628;28;20038;-78
2024/02/02 05:35:33;;;;;;;0.50;0.50;;;;;;;9.40;100.00;102172.34;5082615;28;20032;-78
2024/02/02 05:37:59;;;;;;;1.50;0.55;;;;;;;9.40;100.00;102172.34;5081742;28;20471;-78
2024/02/02 05:40:25;;;;;;;0.68;0.50;;;;;;;9.40;100.00;102164.28;5115281;28;20031;-78
2024/02/02 05:42:51;;;;;;;3.20;0.73;;;;;;;9.38;100.00;102164.41;5081471;28;20043;-78
2024/02/02 05:45:17;;;;;;;0.50;0.50;;;;;;;9.37;100.00;102168.09;5081682;28;20035;-78
2024/02/02 05:47:42;;;;;;;2.10;0.50;;;;;;;9.36;100.00;102170.88;5081502;28;20036;-78
2024/02/02 05:50:08;;;;;;;1.10;0.70;;;;;;;9.38;100.00;102174.28;5081485;28;20382;-78
2024/02/02 05:52:34;;;;;;;2.28;0.40;;;;;;;9.39;100.00;102174.19;5081235;28;20470;-78
2024/02/02 05:55:00;;;;;;;0.75;0.50;;;;;;;9.41;100.00;102171.34;5081328;28;20044;-78
2024/02/02 05:57:25;;;;;;;1.25;0.60;;;;;;;9.43;100.00;102172.91;5115062;28;20063;-78
2024/02/02 05:59:51;;;;;;;1.67;0.60;;;;;;;9.44;100.00;102165.69;5097882;28;20053;-78
2024/02/02 06:02:18;;;;;;;1.20;0.50;;;;;;;9.43;100.00;102172.06;5097804;28;20031;-78
2024/02/02 06:04:44;;;;;;;0.40;0.40;;;;;;;9.45;100.00;102170.94;5098203;28;20036;-78
2024/02/02 06:07:09;;;;;;;0.40;0.40;;;;;;;9.45;100.00;102175.47;5097936;28;20489;-78
2024/02/02 06:09:35;;;;;;;0.45;0.45;;;;;;;9.46;100.00;102172.63;5081173;28;20023;-79
2024/02/02 06:12:01;;;;;;;1.40;0.40;;;;;;;9.49;100.00;102171.50;5080375;28;20122;-79
2024/02/02 06:14:27;;;;;;;0.32;0.32;;;;;;;9.50;100.00;102167.88;5080349;28;20070;-78
2024/02/02 06:16:53;;;;;;;0.32;0.32;;;;;;;9.49;100.00;102176.03;5114782;28;20396;-78
2024/02/02 06:19:19;;;;;;;0.75;0.52;;;;;;;9.49;100.00;102176.03;5097809;28;20027;-78
2024/02/02 06:21:45;;;;;;;0.40;0.40;;;;;;;9.48;100.00;102175.19;5080641;28;20472;-78
2024/02/02 06:24:10;;;;;;;1.13;0.60;;;;;;;9.49;100.00;102181.41;5097090;28;20360;-78
2024/02/02 06:26:39;;;;;;;0.40;0.40;;;;;;;9.48;100.00;102179.72;5097247;28;20027;-78
2024/02/02 06:29:05;;;;;;;0.50;0.50;;;;;;;9.49;100.00;102193.00;5080786;28;20092;-78
2024/02/02 06:31:30;;;;;;;0.50;0.50;;;;;;;9.53;100.00;102182.84;5080754;28;20118;-78
2024/02/02 06:33:56;;;;;;;0.50;0.50;;;;;;;9.53;100.00;102189.06;5080561;28;20118;-78
2024/02/02 06:36:24;;;;;;;0.63;0.50;;;;;;;9.52;100.00;102181.97;5080615;28;20028;-78
2024/02/02 06:38:51;;;;;;;0.50;0.50;;;;;;;9.53;100.00;102178.34;5097653;28;20059;-78
2024/02/02 06:41:16;;;;;;;1.13;0.57;;;;;;;9.53;100.00;102177.50;5080454;28;20059;-78
2024/02/02 06:43:42;;;;;;;0.65;0.40;;;;;;;9.53;100.00;102188.22;5080377;28;20084;-78
2024/02/02 06:46:09;;;;;;;0.40;0.40;;;;;;;9.55;100.00;102187.13;5080190;28;20039;-78
2024/02/02 06:48:35;;;;;;;4.43;0.70;;;;;;;9.55;100.00;102184.44;5080218;28;20028;-78
2024/02/02 06:51:00;;;;;;;0.40;0.40;;;;;;;9.53;100.00;102174.81;5080651;28;20020;-78
2024/02/02 06:53:29;;;;;;;0.60;0.60;;;;;;;9.54;100.00;102184.53;5080042;28;20035;-79
2024/02/02 06:55:54;;;;;;;0.63;0.63;;;;;;;9.55;100.00;102178.19;5097047;28;20057;-79
2024/02/02 06:58:41;;;;;;;0.50;0.50;;;;;;;9.55;100.00;102184.44;5080152;28;20081;-78
2024/02/02 07:01:10;;;;;;;0.40;0.40;;;;;;;9.54;100.00;102177.34;5080126;28;20032;-79
2024/02/02 07:03:36;;;;;;;0.50;0.50;;;;;;;9.57;100.00;102185.13;5079843;28;20039;-78
2024/02/02 07:06:04;;;;;;;0.35;0.35;;;;;;;9.58;100.00;102185.97;5113448;28;20435;-79
2024/02/02 07:08:30;;;;;;;0.40;0.40;;;;;;;9.58;100.00;102178.78;5096485;28;20393;-79
2024/02/02 07:11:34;;;;;;;0.40;0.40;;;;;;;9.61;100.00;102186.56;5079973;28;20108;-79
2024/02/02 07:14:00;;;;;;;1.27;0.75;;;;;;;9.61;100.00;102183.03;5095146;28;20044;-79
2024/02/02 07:16:30;;;;;;;1.33;0.50;;;;;;;9.66;100.00;102180.78;5079909;28;20100;-79
2024/02/02 07:18:56;;;;;;;0.55;0.50;;;;;;;9.65;100.00;102185.28;5062043;28;20478;-79
2024/02/02 07:21:31;;;;;;;0.40;0.40;;;;;;;9.67;100.00;102174.44;5079561;28;20032;-78
2024/02/02 07:23:58;;;;;;;0.40;0.40;;;;;;;9.67;100.00;102179.81;5095968;28;20067;-78
2024/02/02 07:26:29;;;;;;;0.40;0.40;;;;;;;9.68;100.00;102179.69;5079189;28;20122;-79
2024/02/02 07:28:55;;;;;;;0.88;0.47;;;;;;;9.62;100.00;102169.47;5112436;28;20024;-79
2024/02/02 07:31:28;;;;;;;0.50;0.50;;;;;;;9.67;100.00;102177.97;5113064;28;20027;-78
2024/02/02 07:33:53;;;;;;;0.40;0.40;;;;;;;9.69;100.00;102175.16;5096036;28;20141;-79
2024/02/02 07:36:30;;;;;;;1.02;0.40;;;;;;;9.68;100.00;102165.38;5095822;28;20031;-79
2024/02/02 07:38:56;;;;;;;0.60;0.60;;;;;;;9.71;100.00;102175.00;5095863;28;20047;-78
2024/02/02 07:41:24;;;;;;;0.40;0.40;;;;;;;9.69;100.00;102170.63;5095659;28;20023;-78
2024/02/02 07:43:55;;;;;;;2.05;0.50;;;;;;;9.73;100.00;102162.28;5112737;28;20024;-78
2024/02/02 07:46:21;;;;;;;0.68;0.60;;;;;;;9.73;100.00;102173.03;5079500;28;20050;-79
2024/02/02 07:48:48;;;;;;;0.40;0.40;;;;;;;9.74;100.00;102156.78;5112575;28;20054;-78
2024/02/02 07:51:18;;;;;;;0.40;0.40;;;;;;;9.75;100.00;102166.53;5096009;28;20471;-79
2024/02/02 07:53:45;;;;;;;0.40;0.40;;;;;;;9.78;100.00;102170.78;5096392;28;20028;-78
2024/02/02 07:56:12;;;;;;;0.68;0.43;;;;;;;9.77;100.00;102164.56;5095913;28;20072;-78
2024/02/02 07:58:40;;;;;;;0.65;0.47;;;;;;;9.84;100.00;102164.88;5078513;28;20356;-78
2024/02/02 08:01:06;;;;;;;0.75;0.70;;;;;;;9.82;100.00;102167.72;5095895;28;20081;-79
2024/02/02 08:03:34;;;;;;;0.50;0.50;;;;;;;9.81;100.00;102157.09;5112323;28;20467;-78
2024/02/02 08:05:59;;;;;;;0.30;0.30;;;;;;;9.85;100.00;102162.06;5095796;28;20036;-78
2024/02/02 08:08:25;;;;;;;1.27;0.70;;;;;;;9.85;100.00;102167.44;5078806;28;20027;-79
2024/02/02 08:10:51;;;;;;;0.50;0.50;;;;;;;9.89;100.00;102165.31;5095449;28;20038;-79
2024/02/02 08:13:18;;;;;;;0.43;0.43;;;;;;;9.91;100.00;102157.97;5095073;28;20467;-78
2024/02/02 08:15:44;;;;;;;0.43;0.43;;;;;;;9.92;100.00;102173.09;5112259;28;20504;-80
2024/02/02 08:18:10;;;;;;;0.60;0.60;;;;;;;9.95;100.00;102171.97;5078366;28;20145;-79
2024/02/02 08:20:36;;;;;;;1.85;0.40;;;;;;;9.95;100.00;102162.09;5111910;28;20032;-78
2024/02/02 08:23:04;;;;;;;0.55;0.50;;;;;;;9.96;100.00;102161.09;5095636;28;20024;-79
2024/02/02 08:25:30;;;;;;;0.60;0.60;;;;;;;9.98;100.00;102153.75;5078897;28;20028;-79
2024/02/02 08:27:56;;;;;;;0.40;0.40;;;;;;;10.02;100.00;102157.84;5112110;28;20020;-79
2024/02/02 08:30:23;;;;;;;0.55;0.47;;;;;;;10.03;100.00;102150.63;5078559;28;20055;-79
2024/02/02 08:32:51;;;;;;;0.77;0.60;;;;;;;10.05;100.00;102156.72;5078792;28;20024;-79
2024/02/02 08:35:21;;;;;;;0.52;0.50;;;;;;;10.05;100.00;102152.19;5095620;28;20039;-79
2024/02/02 08:37:50;;;;;;;0.40;0.40;;;;;;;10.06;100.00;102153.06;5099207;28;20047;-79
2024/02/02 08:40:25;;;;;;;0.90;0.60;;;;;;;10.12;100.00;102157.88;5099086;28;20024;-79
2024/02/02 08:42:50;;;;;;;0.50;0.50;;;;;;;10.14;100.00;102155.91;5082756;28;20039;-79
2024/02/02 08:45:41;;;;;;;0.50;0.50;;;;;;;10.20;100.00;102163.41;5082368;28;20032;-78
2024/02/02 08:48:27;;;;;;;0.50;0.50;;;;;;;10.20;100.00;102166.09;5099398;28;20044;-78
2024/02/02 08:51:03;;;;;;;0.60;0.60;;;;;;;10.21;100.00;102156.19;5099614;28;20042;-78
2024/02/02 08:53:29;;;;;;;0.50;0.50;;;;;;;10.23;100.00;102160.44;5103296;28;20032;-78
2024/02/02 08:56:00;;;;;;;0.50;0.50;;;;;;;10.24;100.00;102163.97;5107741;28;20053;-78
2024/02/02 08:58:27;;;;;;;3.20;0.75;;;;;;;10.24;100.00;102161.28;5099128;28;20455;-78
2024/02/02 09:00:54;;;;;;;0.98;0.50;;;;;;;10.26;100.00;102157.47;5098852;28;20024;-78
2024/02/02 09:03:31;;;;;;;11.20;0.70;;;;;;;10.28;100.00;102157.38;5099198;28;20089;-78
2024/02/02 09:05:58;;;;;;;0.50;0.50;;;;;;;10.27;100.00;102152.97;5117116;28;20032;-78
2024/02/02 09:08:40;;;;;;;1.20;0.70;;;;;;;10.31;100.00;102167.84;5098108;28;20485;-78
2024/02/02 09:11:12;;;;;;;0.50;0.50;;;;;;;10.34;100.00;102156.78;5115412;28;20115;-78
2024/02/02 09:13:40;;;;;;;1.90;0.52;;;;;;;10.34;100.00;102164.88;5115297;28;20043;-78
2024/02/02 09:16:08;;;;;;;0.50;0.50;;;;;;;10.39;100.00;102164.44;5099258;28;20097;-78
2024/02/02 09:18:54;;;;;;;1.27;0.90;;;;;;;10.43;100.00;102166.72;5098780;28;20043;-78
2024/02/02 09:21:32;;;;;;;0.40;0.40;;;;;;;10.41;100.00;102166.00;5081925;28;20031;-79
2024/02/02 09:23:58;;;;;;;0.60;0.60;;;;;;;10.42;100.00;102164.16;5098115;28;20061;-78
2024/02/02 09:26:38;;;;;;;1.58;0.60;;;;;;;10.45;100.00;102163.88;5115257;28;20051;-78
2024/02/02 09:29:04;;;;;;;0.65;0.45;;;;;;;10.46;100.00;102160.22;5081871;28;20497;-77
2024/02/02 09:31:35;;;;;;;0.60;0.60;;;;;;;10.47;100.00;102168.13;5082003;28;20035;-77
2024/02/02 09:34:09;;;;;;;0.50;0.50;;;;;;;10.46;100.00;102165.59;5098750;28;20024;-77
2024/02/02 09:36:35;;;;;;;0.73;0.55;;;;;;;10.41;100.00;102149.88;5082008;28;20028;-78
2024/02/02 09:39:21;;;;;;;0.40;0.40;;;;;;;10.51;100.00;102158.81;5081725;28;20037;-77
2024/02/02 09:42:07;;;;;;;0.52;0.50;;;;;;;10.54;100.00;102158.53;5098508;28;20130;-77
2024/02/02 09:44:43;;;;;;;0.50;0.50;;;;;;;10.55;100.00;102160.19;5097662;28;20043;-78
2024/02/02 09:47:19;;;;;;;0.98;0.50;;;;;;;10.59;100.00;102157.25;5081281;28;20490;-78
2024/02/02 09:49:57;;;;;;;2.13;0.55;;;;;;;10.58;100.00;102153.69;5081805;28;20044;-78
2024/02/02 09:52:43;;;;;;;0.45;0.45;;;;;;;10.62;100.00;102151.59;5097949;28;20084;-77
2024/02/02 09:55:22;;;;;;;1.40;0.50;;;;;;;10.67;100.00;102147.47;5115070;28;20024;-78
2024/02/02 09:58:10;;;;;;;0.60;0.47;;;;;;;10.73;100.00;102138.81;5097843;28;20127;-78
2024/02/02 10:00:35;;;;;;;0.93;0.60;;;;;;;10.73;100.00;102136.13;5098170;28;20375;-78
2024/02/02 10:03:30;;;;;;;0.60;0.47;;;;;;;10.83;100.00;102138.81;5115830;28;20460;-78
2024/02/02 10:06:23;;;;;;;0.40;0.40;;;;;;;10.80;100.00;102141.81;5117291;28;20031;-78
2024/02/02 10:09:00;;;;;;;0.40;0.40;;;;;;;10.82;100.00;102152.41;5082995;28;20110;-78
2024/02/02 10:11:26;;;;;;;0.60;0.60;;;;;;;10.84;100.00;102153.13;5098510;28;20035;-77
2024/02/02 10:14:04;;;;;;;0.50;0.47;;;;;;;10.86;100.00;102148.47;5097845;28;20456;-78
2024/02/02 10:16:53;;;;;;;0.80;0.50;;;;;;;10.87;100.00;102148.28;5097812;28;20027;-78
2024/02/02 10:19:40;;;;;;;1.58;0.60;;;;;;;10.94;100.00;102148.59;5095626;28;20047;-77
2024/02/02 10:22:44;;;;;;;2.42;0.60;;;;;;;10.97;100.00;102148.28;5097486;28;20028;-79
2024/02/02 10:25:44;;;;;;;0.50;0.50;;;;;;;10.93;100.00;102139.66;5097111;28;20489;-76
2024/02/02 10:28:13;;;;;;;0.55;0.50;;;;;;;10.95;100.00;102150.25;5097331;28;20568;-76
2024/02/02 10:31:06;;;;;;;0.60;0.60;;;;;;;11.02;100.00;102151.41;5096995;28;20391;-76
2024/02/02 10:33:38;;;;;;;0.60;0.60;;;;;;;11.07;100.00;102150.97;5097072;28;20064;-77
2024/02/02 10:36:06;;;;;;;0.52;0.52;;;;;;;11.08;100.00;102145.44;5096929;28;20066;-77
2024/02/02 10:38:32;;;;;;;0.90;0.80;;;;;;;11.09;100.00;102149.84;5113933;28;20486;-78
2024/02/02 10:41:15;;;;;;;0.88;0.88;;;;;;;11.07;100.00;102132.13;5097279;28;20032;-78
2024/02/02 10:44:42;;;;;;;0.65;0.65;;;;;;;11.21;100.00;102145.97;5097577;28;20027;-77
2024/02/02 10:47:30;;;;;;;0.50;0.50;;;;;;;11.32;100.00;102144.09;5061253;28;20033;-78
2024/02/02 10:50:02;;;;;;;0.68;0.68;;;;;;;11.31;100.00;102143.25;5113369;28;20081;-78
2024/02/02 10:52:36;;;;;;;4.30;0.95;;;;;;;11.38;100.00;102147.06;5114217;28;20470;-78
2024/02/02 10:55:38;;;;;;;2.85;0.77;;;;;;;11.46;100.00;102146.31;5097129;28;20470;-78
2024/02/02 10:58:28;;;;;;;3.53;0.60;;;;;;;11.49;100.00;102147.88;5113938;28;20031;-78
2024/02/02 11:01:12;;;;;;;0.60;0.60;;;;;;;11.50;100.00;102139.63;5081828;28;20534;-78
2024/02/02 11:04:02;;;;;;;0.40;0.40;;;;;;;11.44;100.00;102133.00;5096986;28;20035;-78
2024/02/02 11:07:06;;;;;;;4.35;0.85;;;;;;;11.57;100.00;102151.50;5099074;28;20472;-78
2024/02/02 11:09:54;;;;;;;0.50;0.50;;;;;;;11.59;100.00;102154.03;5096504;28;20062;-78
2024/02/02 11:12:34;;;;;;;0.40;0.40;;;;;;;11.62;100.00;102151.06;5096774;28;20031;-78
2024/02/02 11:15:20;;;;;;;2.17;0.85;;;;;;;11.61;100.00;102160.13;5096691;28;20126;-78
2024/02/02 11:18:12;;;;;;;0.77;0.60;;;;;;;11.57;100.00;102164.97;5113925;28;20023;-78
2024/02/02 11:21:01;;;;;;;0.55;0.55;;;;;;;11.62;100.00;102161.84;5097168;28;20376;-78
2024/02/02 11:23:41;;;;;;;0.45;0.45;;;;;;;11.60;100.00;102155.75;5096679;28;20092;-77
2024/02/02 11:26:28;;;;;;;0.50;0.50;;;;;;;11.63;100.00;102156.28;5096233;28;20027;-78
2024/02/02 11:29:15;;;;;;;2.95;0.60;;;;;;;11.70;100.00;102156.56;5113019;28;20031;-78
2024/02/02 11:31:55;;;;;;;0.63;0.63;;;;;;;11.74;100.00;102159.81;5113448;28;20024;-78
2024/02/02 11:34:23;;;;;;;1.48;0.93;;;;;;;11.85;100.00;102154.22;5113363;28;20043;-78
2024/02/02 11:37:03;;;;;;;1.20;0.80;;;;;;;12.18;100.00;102150.06;5113213;28;20156;-78